Terminal Aerodrome Forecast
Issued by NWS Sterling, VA

Current Version | Previous Version | Graphics & Text | Print | Product List | Glossary On
Versions: 1 2 3 4 5 6 7 8 9 10 11 12 13 14 15 16 17 18 19 20
000
FTUS41 KLWX 291727
TAFMRB
TAF
KMRB 291727Z 2918/3018 35008KT P6SM FEW250
     FM300500 04004KT P6SM SCT250
     FM300900 03004KT P6SM BKN100
     FM301400 09004KT P6SM OVC070=

USA.gov is the U.S. government's official web portal to all federal, state and local government web resources and services.